createdAt,value
2022-10-08T00:02:32.940Z,91.08
2022-10-08T00:05:06.754Z,90.97
2022-10-08T00:08:00.211Z,91.21
2022-10-08T00:11:24.667Z,91.32
2022-10-08T00:13:53.614Z,91.02
2022-10-08T00:16:35.821Z,91.10
2022-10-08T00:19:28.003Z,91.03
2022-10-08T00:22:01.464Z,90.92
2022-10-08T00:24:33.225Z,90.93
2022-10-08T00:27:26.144Z,91.40
2022-10-08T00:30:08.567Z,91.15
2022-10-08T00:32:41.069Z,91.09
2022-10-08T00:35:23.884Z,90.91
2022-10-08T00:38:11.490Z,91.20
2022-10-08T00:40:45.846Z,91.34
2022-10-08T00:44:03.118Z,91.56
2022-10-08T00:46:59.196Z,91.97
2022-10-08T00:49:55.721Z,91.65
2022-10-08T00:52:33.308Z,91.88
2022-10-08T00:55:19.875Z,92.13
2022-10-08T00:58:00.894Z,91.95
2022-10-08T01:00:42.685Z,92.08
2022-10-08T01:03:59.602Z,91.99
2022-10-08T01:06:44.334Z,92.06
2022-10-08T01:09:40.718Z,91.84
2022-10-08T01:12:50.110Z,91.87
2022-10-08T01:15:47.376Z,91.74
2022-10-08T01:18:56.058Z,91.74
2022-10-08T01:21:38.982Z,91.90
2022-10-08T01:24:46.469Z,91.88
2022-10-08T01:27:53.355Z,91.97
2022-10-08T01:30:23.741Z,92.08
2022-10-08T01:33:21.958Z,92.71
2022-10-08T01:36:12.429Z,92.88
2022-10-08T01:38:56.701Z,93.19
2022-10-08T01:44:34.468Z,93.58
2022-10-08T01:47:15.788Z,94.01
2022-10-08T01:49:52.932Z,94.10
2022-10-08T01:52:36.730Z,94.48
2022-10-08T01:55:17.854Z,94.52
2022-10-08T01:57:49.054Z,94.25
2022-10-08T02:00:34.503Z,93.82
2022-10-08T02:03:06.819Z,93.89
2022-10-08T02:05:50.082Z,93.99
2022-10-08T02:08:27.714Z,94.86
2022-10-08T02:10:59.739Z,95.48
2022-10-08T02:13:52.318Z,95.54
2022-10-08T02:16:47.694Z,95.29
2022-10-08T02:20:06.442Z,95.61
2022-10-08T02:22:58.495Z,95.36
2022-10-08T02:25:51.383Z,95.00
2022-10-08T02:28:43.736Z,95.04
2022-10-08T02:32:01.815Z,94.99
2022-10-08T02:34:50.549Z,95.01
2022-10-08T02:37:58.758Z,95.28
2022-10-08T02:40:44.088Z,95.12
2022-10-08T02:43:29.170Z,95.61
2022-10-08T02:46:24.751Z,95.70
2022-10-08T02:49:12.947Z,95.75
2022-10-08T02:52:06.437Z,96.02
2022-10-08T02:54:45.241Z,96.12
2022-10-08T02:57:58.765Z,96.67
2022-10-08T03:01:05.726Z,96.40
2022-10-08T03:03:40.224Z,96.46
2022-10-08T03:06:44.922Z,95.97
2022-10-08T03:09:27.876Z,96.07
2022-10-08T03:12:13.350Z,96.67
2022-10-08T03:14:52.184Z,96.36
2022-10-08T03:17:40.677Z,97.31
2022-10-08T03:20:13.563Z,97.39
2022-10-08T03:22:46.646Z,97.59
2022-10-08T03:25:39.174Z,97.73
2022-10-08T03:28:09.655Z,97.90
2022-10-08T03:33:29.087Z,97.74
2022-10-08T03:36:17.728Z,97.53
2022-10-08T03:39:06.109Z,97.94
2022-10-08T03:41:47.611Z,97.97
2022-10-08T03:44:47.118Z,97.58
2022-10-08T03:47:19.560Z,98.73
2022-10-08T03:50:01.990Z,99.30
2022-10-08T03:52:50.268Z,99.14
2022-10-08T03:55:27.330Z,98.92
2022-10-08T03:57:58.214Z,99.08
2022-10-08T04:01:02.481Z,99.20
2022-10-08T04:03:32.895Z,98.70
2022-10-08T04:06:11.117Z,98.70
2022-10-08T04:09:01.706Z,98.43
2022-10-08T04:14:25.990Z,98.05
2022-10-08T04:17:14.943Z,97.72
2022-10-08T04:20:04.582Z,97.60
2022-10-08T04:22:42.477Z,97.77
2022-10-08T04:25:27.363Z,98.20
2022-10-08T04:28:06.920Z,97.98
2022-10-08T04:30:41.592Z,97.62
2022-10-08T04:33:22.010Z,97.64
2022-10-08T04:36:07.183Z,97.51
2022-10-08T04:38:56.550Z,97.73
2022-10-08T04:41:42.233Z,97.35
2022-10-08T04:44:18.331Z,97.33
2022-10-08T04:46:56.557Z,97.50
2022-10-08T04:49:25.634Z,97.63
2022-10-08T04:51:59.224Z,97.74
2022-10-08T04:57:39.290Z,97.41
2022-10-08T05:00:21.632Z,97.55
2022-10-08T05:03:16.010Z,97.31
2022-10-08T05:06:14.417Z,97.11
2022-10-08T05:09:05.332Z,97.13
2022-10-08T05:11:42.974Z,97.26
2022-10-08T05:14:18.343Z,97.44
2022-10-08T05:16:51.654Z,97.41
2022-10-08T05:19:44.268Z,97.28
2022-10-08T05:22:47.366Z,96.89
2022-10-08T05:25:43.986Z,97.08
2022-10-08T05:28:27.861Z,97.38
2022-10-08T05:31:09.258Z,97.02
2022-10-08T05:33:46.912Z,97.16
2022-10-08T05:36:28.662Z,97.06
2022-10-08T05:39:00.120Z,97.12
2022-10-08T05:41:54.640Z,97.04
2022-10-08T05:44:37.436Z,96.84
2022-10-08T05:47:05.148Z,96.77
2022-10-08T05:49:43.915Z,96.93
2022-10-08T05:52:11.622Z,97.25
2022-10-08T05:55:13.267Z,97.00
2022-10-08T05:57:49.186Z,97.46
2022-10-08T06:00:18.637Z,97.74
2022-10-08T06:03:09.900Z,97.92
2022-10-08T06:05:58.476Z,97.73
2022-10-08T06:08:38.387Z,97.31
2022-10-08T06:11:24.904Z,97.25
2022-10-08T06:14:10.265Z,97.12
2022-10-08T06:16:44.574Z,97.04
2022-10-08T06:19:39.111Z,96.80
2022-10-08T06:22:22.552Z,96.65
2022-10-08T06:25:10.191Z,96.32
2022-10-08T06:30:53.455Z,95.78
2022-10-08T06:33:37.619Z,95.27
2022-10-08T06:36:14.744Z,95.15
2022-10-08T06:39:19.375Z,95.00
2022-10-08T06:42:01.629Z,94.78
2022-10-08T06:44:42.443Z,94.57
2022-10-08T06:47:15.259Z,94.28
2022-10-08T06:49:52.737Z,94.26
2022-10-08T06:52:20.144Z,93.91
2022-10-08T06:55:07.834Z,93.66
2022-10-08T06:57:37.803Z,93.43
2022-10-08T07:00:10.416Z,92.96
2022-10-08T07:02:52.839Z,92.56
2022-10-08T07:05:42.888Z,92.68
2022-10-08T07:08:40.704Z,92.88
2022-10-08T07:14:02.719Z,92.03
2022-10-08T07:16:50.594Z,91.71
2022-10-08T07:19:42.571Z,91.57
2022-10-08T07:22:18.120Z,91.45
2022-10-08T07:24:59.513Z,90.80
2022-10-08T07:27:59.790Z,90.25
2022-10-08T07:30:36.920Z,90.37
2022-10-08T07:33:19.086Z,90.60
2022-10-08T07:35:55.617Z,90.38
2022-10-08T07:38:25.427Z,90.12
2022-10-08T07:41:11.627Z,89.71
2022-10-08T07:43:58.083Z,89.18
2022-10-08T07:46:37.304Z,89.39
2022-10-08T07:49:20.370Z,89.23
2022-10-08T07:51:57.535Z,88.85
2022-10-08T07:54:27.462Z,88.86
2022-10-08T08:00:26.002Z,87.84
2022-10-08T08:03:05.330Z,87.86
2022-10-08T08:06:10.992Z,87.17
2022-10-08T08:08:47.967Z,86.63
2022-10-08T08:11:24.702Z,86.56
2022-10-08T08:14:03.231Z,86.39
2022-10-08T08:16:40.082Z,85.84
2022-10-08T08:19:31.090Z,85.70
2022-10-08T08:25:05.143Z,84.97
2022-10-08T08:28:01.195Z,85.02
2022-10-08T08:30:43.680Z,84.62
2022-10-08T08:33:32.426Z,84.21
2022-10-08T08:36:32.525Z,83.09
2022-10-08T08:39:26.020Z,83.04
2022-10-08T08:42:24.979Z,82.71
2022-10-08T08:45:01.544Z,82.62
2022-10-08T08:48:16.457Z,82.25
2022-10-08T08:50:50.740Z,82.75
2022-10-08T08:53:48.886Z,82.83
2022-10-08T08:56:32.430Z,81.61
2022-10-08T08:59:12.403Z,80.56
2022-10-08T09:02:02.736Z,80.04
2022-10-08T09:04:54.156Z,80.44
2022-10-08T09:07:49.155Z,79.42
2022-10-08T09:10:42.637Z,78.81
2022-10-08T09:13:31.919Z,79.92
2022-10-08T09:16:26.491Z,79.43
2022-10-08T09:19:12.570Z,77.84
2022-10-08T09:21:56.858Z,78.35
2022-10-08T09:25:58.648Z,77.55
2022-10-08T09:29:00.786Z,77.61
2022-10-08T09:31:31.001Z,77.58
2022-10-08T09:34:31.056Z,77.34
2022-10-08T09:37:26.635Z,77.11
2022-10-08T09:40:40.588Z,77.21
2022-10-08T09:43:29.359Z,77.20
2022-10-08T09:46:13.619Z,76.60
2022-10-08T09:48:48.633Z,76.83
2022-10-08T09:51:32.074Z,76.85
2022-10-08T09:54:31.413Z,75.68
2022-10-08T09:57:14.385Z,75.35
2022-10-08T10:00:35.857Z,74.21
2022-10-08T10:06:42.265Z,70.61
2022-10-08T10:09:40.862Z,70.25
2022-10-08T10:12:32.371Z,70.77
2022-10-08T10:15:24.038Z,71.64
2022-10-08T10:18:35.862Z,70.51
2022-10-08T10:21:27.280Z,70.14
2022-10-08T10:24:22.971Z,69.48
2022-10-08T10:27:23.948Z,68.23
2022-10-08T10:30:28.500Z,68.56
2022-10-08T10:33:18.938Z,69.24
2022-10-08T10:36:03.987Z,69.85
2022-10-08T10:38:43.214Z,70.68
2022-10-08T10:41:49.711Z,70.15
2022-10-08T10:44:34.711Z,70.61
2022-10-08T10:47:12.042Z,70.75
2022-10-08T10:49:51.305Z,70.52
2022-10-08T10:52:49.536Z,70.55
2022-10-08T10:55:50.239Z,70.60
2022-10-08T10:59:12.617Z,70.48
2022-10-08T11:02:03.342Z,71.21
2022-10-08T11:05:19.807Z,71.75
2022-10-08T11:08:16.676Z,72.26
2022-10-08T11:11:08.514Z,72.75
2022-10-08T11:14:03.660Z,73.11
2022-10-08T11:17:09.520Z,73.45
2022-10-08T11:19:46.052Z,73.16
2022-10-08T11:23:08.173Z,73.71
2022-10-08T11:26:20.880Z,73.93
2022-10-08T11:29:38.787Z,74.66
2022-10-08T11:32:22.668Z,74.89
2022-10-08T11:35:19.902Z,74.83
2022-10-08T11:38:40.411Z,74.97
2022-10-08T11:42:15.524Z,75.11
2022-10-08T11:45:14.832Z,75.36
2022-10-08T11:47:59.620Z,75.39
2022-10-08T11:51:24.903Z,75.83
2022-10-08T11:54:13.333Z,75.81
2022-10-08T11:57:13.172Z,75.74
2022-10-08T12:00:12.583Z,75.19
2022-10-08T12:02:55.235Z,75.14
2022-10-08T12:06:14.450Z,74.85
2022-10-08T12:09:54.265Z,74.78
2022-10-08T12:12:42.401Z,74.41
2022-10-08T12:15:46.794Z,74.43
2022-10-08T12:18:43.841Z,74.15
2022-10-08T12:21:36.361Z,74.25
2022-10-08T12:24:50.188Z,74.70
2022-10-08T12:27:46.852Z,73.45
2022-10-08T12:30:44.458Z,73.69
2022-10-08T12:33:28.271Z,73.33
2022-10-08T12:36:43.845Z,73.57
2022-10-08T12:39:46.952Z,73.86
2022-10-08T12:42:49.536Z,74.24
2022-10-08T12:46:05.193Z,73.72
2022-10-08T12:48:47.512Z,72.47
2022-10-08T12:51:43.735Z,71.47
2022-10-08T12:54:34.360Z,69.69
2022-10-08T12:57:27.598Z,69.02
2022-10-08T13:00:28.839Z,69.03
2022-10-08T13:03:17.252Z,68.54
2022-10-08T13:09:31.897Z,69.74
2022-10-08T13:16:10.510Z,65.78
2022-10-08T13:18:48.092Z,65.76
2022-10-08T13:22:20.017Z,66.53
2022-10-08T13:25:20.374Z,67.21
2022-10-08T13:28:10.756Z,68.28
2022-10-08T13:30:47.081Z,68.12
2022-10-08T13:33:38.597Z,68.03
2022-10-08T13:36:37.830Z,68.01
2022-10-08T13:39:16.857Z,68.08
2022-10-08T13:42:10.856Z,68.51
2022-10-08T13:44:45.800Z,69.01
2022-10-08T13:47:29.377Z,69.82
2022-10-08T13:50:22.967Z,70.45
2022-10-08T13:53:08.416Z,70.15
2022-10-08T13:56:01.608Z,70.97
2022-10-08T13:58:35.196Z,71.65
2022-10-08T14:04:32.665Z,72.29
2022-10-08T14:07:28.417Z,72.56
2022-10-08T14:10:13.358Z,72.88
2022-10-08T14:12:41.773Z,72.77
2022-10-08T14:15:41.271Z,72.71
2022-10-08T14:18:22.503Z,72.58
2022-10-08T14:20:52.131Z,72.21
2022-10-08T14:23:31.267Z,72.35
2022-10-08T14:26:15.687Z,72.46
2022-10-08T14:28:48.455Z,72.12
2022-10-08T14:31:21.202Z,72.15
2022-10-08T14:34:07.257Z,71.71
2022-10-08T14:36:44.132Z,71.87
2022-10-08T14:39:23.481Z,72.00
2022-10-08T14:41:58.427Z,72.14
2022-10-08T14:44:32.335Z,72.74
2022-10-08T14:47:06.943Z,73.07
2022-10-08T14:49:43.163Z,73.17
2022-10-08T14:52:44.691Z,73.38
2022-10-08T14:55:16.242Z,73.54
2022-10-08T14:57:46.578Z,73.82
2022-10-08T15:00:45.084Z,74.01
2022-10-08T15:03:21.281Z,74.16
2022-10-08T15:05:59.341Z,74.60
2022-10-08T15:08:44.392Z,74.60
2022-10-08T15:11:20.945Z,74.85
2022-10-08T15:14:07.262Z,75.25
2022-10-08T15:17:00.702Z,75.55
2022-10-08T15:19:44.931Z,75.80
2022-10-08T15:22:22.068Z,76.22
2022-10-08T15:25:04.353Z,76.49
2022-10-08T15:27:45.513Z,76.89
2022-10-08T15:30:23.548Z,77.24
2022-10-08T15:32:59.684Z,77.54
2022-10-08T15:35:44.044Z,77.39
2022-10-08T15:38:23.792Z,77.91
2022-10-08T15:41:08.272Z,78.11
2022-10-08T15:43:53.981Z,78.96
2022-10-08T15:46:36.042Z,79.51
2022-10-08T15:49:15.507Z,79.47
2022-10-08T15:51:45.298Z,79.72
2022-10-08T15:54:24.953Z,80.22
2022-10-08T15:56:54.495Z,80.54
2022-10-08T15:59:24.572Z,80.83
2022-10-08T16:02:02.369Z,81.19
2022-10-08T16:04:34.875Z,81.16
2022-10-08T16:07:20.401Z,81.25
2022-10-08T16:10:08.125Z,81.41
2022-10-08T16:12:49.182Z,81.52
2022-10-08T16:15:25.728Z,81.73
2022-10-08T16:18:08.347Z,81.91
2022-10-08T16:20:49.388Z,81.79
2022-10-08T16:23:46.337Z,82.32
2022-10-08T16:26:28.641Z,82.75
2022-10-08T16:29:08.109Z,82.75
2022-10-08T16:31:41.678Z,83.41
2022-10-08T16:34:30.662Z,83.49
2022-10-08T16:37:06.679Z,83.79
2022-10-08T16:39:51.729Z,84.29
2022-10-08T16:42:26.709Z,85.29
2022-10-08T16:45:18.204Z,86.88
2022-10-08T16:47:45.613Z,88.33
2022-10-08T16:50:25.706Z,89.66
2022-10-08T16:53:43.438Z,92.04
2022-10-08T16:56:25.608Z,92.37
2022-10-08T16:59:07.029Z,93.79
2022-10-08T17:01:46.261Z,95.90
2022-10-08T17:04:38.716Z,96.90
2022-10-08T17:07:15.411Z,98.26
2022-10-08T17:09:57.920Z,99.67
2022-10-08T17:13:01.274Z,100.00
2022-10-08T17:15:33.462Z,100.00
2022-10-08T17:18:07.682Z,100.00
2022-10-08T17:20:38.117Z,100.00
2022-10-08T17:23:25.680Z,100.00
2022-10-08T17:26:05.943Z,100.00
2022-10-08T17:28:49.070Z,100.00
2022-10-08T17:31:39.568Z,100.00
2022-10-08T17:34:14.541Z,100.00
2022-10-08T17:36:44.151Z,100.00
2022-10-08T17:39:29.365Z,100.00
2022-10-08T17:42:38.950Z,100.00
2022-10-08T17:45:11.325Z,100.00
2022-10-08T17:47:54.679Z,100.00
2022-10-08T17:53:20.923Z,100.00
2022-10-08T17:56:10.096Z,100.00
2022-10-08T17:58:51.387Z,100.00
2022-10-08T18:01:48.970Z,100.00
2022-10-08T18:04:38.545Z,100.00
2022-10-08T18:07:17.346Z,100.00
2022-10-08T18:10:06.846Z,100.00
2022-10-08T18:13:06.530Z,100.00
2022-10-08T18:15:47.903Z,100.00
2022-10-08T18:18:24.475Z,100.00
2022-10-08T18:21:10.326Z,100.00
2022-10-08T18:23:44.369Z,100.00
2022-10-08T18:26:36.611Z,100.00
2022-10-08T18:29:12.261Z,100.00
2022-10-08T18:31:54.194Z,100.00
2022-10-08T18:34:51.254Z,99.75
2022-10-08T18:37:32.310Z,99.11
2022-10-08T18:40:13.569Z,98.68
2022-10-08T18:42:55.956Z,98.27
2022-10-08T18:45:48.116Z,98.05
2022-10-08T18:48:15.895Z,97.88
2022-10-08T18:50:52.713Z,97.54
2022-10-08T18:53:40.627Z,97.34
2022-10-08T18:56:27.585Z,97.28
2022-10-08T18:59:20.290Z,97.25
2022-10-08T19:02:09.809Z,97.24
2022-10-08T19:05:27.613Z,97.22
2022-10-08T19:08:15.216Z,97.01
2022-10-08T19:11:00.267Z,96.84
2022-10-08T19:16:32.716Z,96.59
2022-10-08T19:19:19.478Z,96.41
2022-10-08T19:22:21.122Z,96.30
2022-10-08T19:25:14.442Z,96.20
2022-10-08T19:27:59.012Z,96.10
2022-10-08T19:30:34.714Z,95.89
2022-10-08T19:33:40.671Z,95.72
2022-10-08T19:36:28.314Z,95.60
2022-10-08T19:39:17.379Z,95.61
2022-10-08T19:41:54.425Z,95.42
2022-10-08T19:44:33.077Z,95.59
2022-10-08T19:47:10.287Z,95.52
2022-10-08T19:49:59.059Z,95.41
2022-10-08T19:52:39.293Z,95.49
2022-10-08T19:55:32.162Z,95.30
2022-10-08T19:58:11.539Z,95.22
2022-10-08T20:00:59.913Z,95.13
2022-10-08T20:04:04.026Z,95.16
2022-10-08T20:06:34.276Z,95.06
2022-10-08T20:09:03.443Z,95.24
2022-10-08T20:11:44.242Z,95.27
2022-10-08T20:14:18.754Z,95.09
2022-10-08T20:16:57.651Z,95.24
2022-10-08T20:20:15.262Z,94.96
2022-10-08T20:23:09.393Z,95.04
2022-10-08T20:26:11.460Z,95.19
2022-10-08T20:29:00.735Z,94.99
2022-10-08T20:31:41.188Z,94.85
2022-10-08T20:34:24.619Z,95.04
2022-10-08T20:37:10.499Z,95.03
2022-10-08T20:40:03.757Z,95.16
2022-10-08T20:42:52.137Z,95.22
2022-10-08T20:45:35.842Z,95.31
2022-10-08T20:48:35.334Z,95.54
2022-10-08T20:51:25.817Z,95.19
2022-10-08T20:54:16.601Z,95.07
2022-10-08T20:56:53.370Z,95.25
2022-10-08T20:59:35.907Z,95.23
2022-10-08T21:02:11.013Z,94.98
2022-10-08T21:05:07.122Z,94.77
2022-10-08T21:11:13.230Z,94.77
2022-10-08T21:14:06.640Z,94.98
2022-10-08T21:17:08.705Z,95.07
2022-10-08T21:19:53.842Z,95.02
2022-10-08T21:22:42.762Z,95.13
2022-10-08T21:25:47.165Z,95.09
2022-10-08T21:28:46.844Z,94.82
2022-10-08T21:31:45.590Z,94.85
2022-10-08T21:34:23.468Z,94.50
2022-10-08T21:37:13.814Z,94.60
2022-10-08T21:40:00.672Z,94.07
2022-10-08T21:42:37.554Z,94.14
2022-10-08T21:45:17.461Z,94.13
2022-10-08T21:47:50.833Z,93.93
2022-10-08T21:50:49.232Z,93.50
2022-10-08T21:53:46.105Z,93.34
2022-10-08T21:56:32.113Z,93.35
2022-10-08T21:59:28.744Z,93.35
2022-10-08T22:01:57.593Z,93.34
2022-10-08T22:04:37.200Z,93.20
2022-10-08T22:07:52.570Z,93.15
2022-10-08T22:10:34.969Z,93.13
2022-10-08T22:13:08.640Z,93.42
2022-10-08T22:16:08.500Z,93.52
2022-10-08T22:19:06.784Z,93.57
2022-10-08T22:21:48.910Z,93.53
2022-10-08T22:24:31.309Z,93.53
2022-10-08T22:30:14.200Z,93.67
2022-10-08T22:32:48.736Z,93.82
2022-10-08T22:35:45.944Z,93.62
2022-10-08T22:38:13.738Z,93.43
2022-10-08T22:41:08.647Z,93.30
2022-10-08T22:43:50.660Z,93.56
2022-10-08T22:46:22.872Z,93.49
2022-10-08T22:49:07.112Z,93.66
2022-10-08T22:51:56.170Z,93.72
2022-10-08T22:54:39.090Z,93.85
2022-10-08T22:57:39.887Z,94.27
2022-10-08T23:00:17.193Z,95.09
2022-10-08T23:03:11.332Z,94.87
2022-10-08T23:05:46.445Z,94.83
2022-10-08T23:08:16.955Z,94.69
2022-10-08T23:11:26.654Z,94.79
2022-10-08T23:14:04.603Z,94.86
2022-10-08T23:17:05.062Z,94.98
2022-10-08T23:19:40.734Z,95.07
2022-10-08T23:22:22.765Z,95.21
2022-10-08T23:25:35.906Z,95.45
2022-10-08T23:28:09.987Z,95.73
2022-10-08T23:31:21.984Z,96.24
2022-10-08T23:34:03.051Z,96.78
2022-10-08T23:36:51.161Z,97.30
2022-10-08T23:39:21.529Z,97.04
2022-10-08T23:42:12.832Z,97.33
2022-10-08T23:44:54.429Z,97.05
2022-10-08T23:47:44.052Z,97.11
2022-10-08T23:50:43.296Z,97.42
2022-10-08T23:53:19.222Z,97.79
2022-10-08T23:56:20.950Z,97.87
2022-10-08T23:58:56.385Z,98.08
